createdAt,value
2022-10-06T00:01:19.361Z,73.15
2022-10-06T00:03:49.450Z,73.10
2022-10-06T00:06:19.067Z,73.18
2022-10-06T00:08:48.083Z,73.21
2022-10-06T00:11:17.461Z,73.25
2022-10-06T00:13:46.748Z,73.16
2022-10-06T00:16:17.879Z,73.28
2022-10-06T00:18:47.305Z,73.33
2022-10-06T00:21:16.492Z,73.34
2022-10-06T00:23:45.282Z,73.30
2022-10-06T00:26:16.107Z,73.37
2022-10-06T00:28:46.053Z,73.26
2022-10-06T00:31:15.926Z,73.45
2022-10-06T00:33:44.691Z,73.41
2022-10-06T00:36:14.809Z,73.39
2022-10-06T00:38:43.978Z,73.54
2022-10-06T00:41:16.208Z,73.48
2022-10-06T00:43:49.133Z,73.51
2022-10-06T00:46:25.735Z,73.53
2022-10-06T00:49:01.791Z,73.52
2022-10-06T00:51:32.888Z,73.56
2022-10-06T00:54:02.595Z,73.48
2022-10-06T00:56:32.388Z,73.71
2022-10-06T00:59:01.114Z,73.59
2022-10-06T01:01:32.565Z,73.59
2022-10-06T01:04:06.013Z,73.52
2022-10-06T01:06:45.109Z,73.79
2022-10-06T01:09:16.085Z,73.58
2022-10-06T01:11:49.809Z,73.76
2022-10-06T01:14:19.803Z,73.71
2022-10-06T01:16:57.767Z,73.70
2022-10-06T01:19:37.070Z,73.81
2022-10-06T01:22:08.160Z,73.78
2022-10-06T01:24:37.730Z,73.78
2022-10-06T01:27:08.241Z,73.81
2022-10-06T01:29:38.211Z,73.92
2022-10-06T01:32:07.234Z,73.80
2022-10-06T01:34:36.489Z,73.75
2022-10-06T01:37:05.192Z,73.88
2022-10-06T01:39:35.590Z,73.89
2022-10-06T01:42:04.955Z,74.03
2022-10-06T01:44:33.951Z,73.88
2022-10-06T01:47:05.695Z,73.88
2022-10-06T01:49:35.016Z,73.92
2022-10-06T01:52:04.660Z,73.80
2022-10-06T01:54:33.601Z,73.93
2022-10-06T01:57:02.320Z,73.97
2022-10-06T01:59:31.114Z,73.97
2022-10-06T02:01:59.852Z,74.00
2022-10-06T02:04:28.630Z,73.84
2022-10-06T02:06:57.417Z,74.07
2022-10-06T02:09:26.365Z,74.08
2022-10-06T02:11:56.328Z,74.07
2022-10-06T02:14:25.015Z,73.96
2022-10-06T02:16:53.702Z,74.15
2022-10-06T02:19:22.599Z,74.07
2022-10-06T02:21:51.604Z,74.22
2022-10-06T02:24:20.339Z,74.12
2022-10-06T02:26:49.371Z,74.36
2022-10-06T02:29:18.467Z,74.36
2022-10-06T02:31:47.264Z,74.34
2022-10-06T02:34:16.513Z,74.43
2022-10-06T02:36:45.342Z,74.39
2022-10-06T02:39:14.283Z,74.55
2022-10-06T02:41:43.021Z,74.60
2022-10-06T02:44:11.981Z,74.64
2022-10-06T02:46:41.421Z,74.73
2022-10-06T02:49:10.118Z,74.73
2022-10-06T02:51:38.909Z,74.72
2022-10-06T02:54:08.239Z,74.77
2022-10-06T02:56:38.024Z,74.75
2022-10-06T02:59:06.977Z,74.85
2022-10-06T03:01:36.692Z,74.81
2022-10-06T03:04:11.511Z,74.99
2022-10-06T03:06:41.838Z,74.95
2022-10-06T03:09:21.508Z,74.95
2022-10-06T03:11:50.371Z,75.11
2022-10-06T03:14:24.221Z,75.07
2022-10-06T03:16:54.204Z,75.16
2022-10-06T03:19:26.194Z,75.12
2022-10-06T03:21:55.230Z,75.34
2022-10-06T03:24:27.718Z,75.19
2022-10-06T03:26:58.435Z,75.21
2022-10-06T03:29:30.397Z,75.26
2022-10-06T03:31:59.228Z,75.25
2022-10-06T03:34:28.077Z,75.45
2022-10-06T03:36:57.429Z,75.50
2022-10-06T03:39:27.114Z,75.49
2022-10-06T03:41:56.297Z,75.54
2022-10-06T03:44:25.304Z,75.58
2022-10-06T03:46:54.225Z,75.56
2022-10-06T03:49:23.171Z,75.63
2022-10-06T03:51:53.556Z,75.67
2022-10-06T03:54:25.313Z,75.65
2022-10-06T03:56:54.602Z,75.69
2022-10-06T03:59:23.462Z,75.79
2022-10-06T04:01:55.381Z,75.69
2022-10-06T04:04:29.988Z,75.80
2022-10-06T04:07:05.173Z,75.87
2022-10-06T04:09:33.919Z,75.85
2022-10-06T04:12:03.519Z,75.82
2022-10-06T04:14:34.703Z,75.84
2022-10-06T04:17:03.697Z,75.95
2022-10-06T04:19:35.759Z,75.87
2022-10-06T04:22:05.119Z,75.91
2022-10-06T04:24:36.215Z,76.02
2022-10-06T04:27:23.454Z,75.99
2022-10-06T04:29:57.840Z,75.96
2022-10-06T04:32:28.863Z,76.05
2022-10-06T04:34:57.717Z,76.07
2022-10-06T04:37:28.424Z,75.95
2022-10-06T04:39:57.211Z,76.05
2022-10-06T04:42:32.562Z,76.17
2022-10-06T04:45:05.164Z,76.25
2022-10-06T04:47:34.250Z,76.20
2022-10-06T04:50:03.553Z,76.20
2022-10-06T04:52:32.426Z,76.30
2022-10-06T04:55:02.844Z,76.41
2022-10-06T04:57:31.703Z,76.30
2022-10-06T05:00:19.085Z,76.36
2022-10-06T05:02:48.592Z,76.41
2022-10-06T05:05:17.474Z,76.39
2022-10-06T05:07:47.223Z,76.38
2022-10-06T05:10:16.835Z,76.32
2022-10-06T05:12:45.849Z,76.15
2022-10-06T05:15:15.383Z,76.09
2022-10-06T05:17:44.143Z,75.91
2022-10-06T05:20:12.914Z,75.53
2022-10-06T05:22:41.637Z,75.37
2022-10-06T05:25:11.146Z,75.22
2022-10-06T05:27:40.072Z,75.00
2022-10-06T05:30:11.721Z,74.67
2022-10-06T05:32:40.404Z,74.31
2022-10-06T05:35:09.747Z,74.12
2022-10-06T05:37:38.936Z,73.86
2022-10-06T05:40:09.116Z,73.56
2022-10-06T05:42:38.441Z,73.02
2022-10-06T05:45:09.582Z,72.67
2022-10-06T05:47:38.408Z,72.53
2022-10-06T05:50:08.980Z,72.12
2022-10-06T05:52:38.218Z,71.69
2022-10-06T05:55:09.637Z,71.40
2022-10-06T05:57:38.928Z,70.92
2022-10-06T06:00:10.285Z,70.63
2022-10-06T06:02:41.747Z,70.26
2022-10-06T06:05:11.650Z,70.02
2022-10-06T06:07:41.199Z,69.41
2022-10-06T06:10:10.517Z,68.83
2022-10-06T06:12:39.394Z,68.11
2022-10-06T06:15:44.976Z,67.31
2022-10-06T06:18:14.102Z,66.57
2022-10-06T06:20:42.983Z,65.50
2022-10-06T06:23:11.988Z,64.15
2022-10-06T06:25:42.190Z,63.50
2022-10-06T06:28:11.181Z,62.14
2022-10-06T06:30:40.083Z,61.00
2022-10-06T06:33:10.952Z,60.66
2022-10-06T06:35:40.320Z,60.06
2022-10-06T06:38:11.174Z,58.88
2022-10-06T06:40:41.595Z,58.92
2022-10-06T06:43:12.931Z,58.41
2022-10-06T06:46:04.164Z,57.84
2022-10-06T06:49:04.542Z,58.55
2022-10-06T06:51:39.727Z,59.30
2022-10-06T06:54:09.887Z,59.77
2022-10-06T06:56:45.156Z,60.33
2022-10-06T06:59:14.833Z,60.76
2022-10-06T07:01:46.661Z,61.54
2022-10-06T07:04:18.572Z,62.17
2022-10-06T07:06:58.082Z,62.52
2022-10-06T07:09:30.273Z,62.97
2022-10-06T07:12:15.326Z,63.70
2022-10-06T07:15:06.802Z,63.97
2022-10-06T07:17:58.771Z,64.39
2022-10-06T07:20:44.937Z,64.93
2022-10-06T07:23:35.456Z,65.36
2022-10-06T07:26:06.608Z,65.84
2022-10-06T07:28:35.508Z,66.23
2022-10-06T07:31:06.404Z,66.72
2022-10-06T07:33:36.620Z,66.93
2022-10-06T07:36:07.278Z,67.22
2022-10-06T07:38:37.055Z,67.40
2022-10-06T07:41:21.563Z,67.69
2022-10-06T07:43:54.354Z,67.99
2022-10-06T07:46:24.290Z,68.22
2022-10-06T07:49:00.037Z,68.37
2022-10-06T07:51:28.939Z,68.54
2022-10-06T07:53:59.429Z,68.92
2022-10-06T07:56:40.990Z,69.22
2022-10-06T07:59:09.719Z,69.30
2022-10-06T08:01:40.148Z,69.56
2022-10-06T08:04:08.941Z,69.65
2022-10-06T08:06:37.970Z,69.72
2022-10-06T08:09:07.098Z,69.78
2022-10-06T08:11:35.992Z,69.99
2022-10-06T08:14:04.710Z,70.08
2022-10-06T08:16:33.456Z,70.24
2022-10-06T08:19:02.174Z,70.26
2022-10-06T08:21:33.784Z,70.02
2022-10-06T08:24:02.831Z,69.55
2022-10-06T08:26:32.623Z,68.94
2022-10-06T08:29:02.523Z,68.41
2022-10-06T08:31:32.137Z,67.34
2022-10-06T08:34:01.273Z,66.70
2022-10-06T08:36:32.610Z,66.00
2022-10-06T08:39:01.811Z,64.27
2022-10-06T08:41:39.394Z,63.19
2022-10-06T08:44:20.670Z,61.33
2022-10-06T08:46:57.028Z,61.33
2022-10-06T08:49:32.825Z,58.69
2022-10-06T08:52:26.220Z,57.69
2022-10-06T08:55:06.924Z,56.56
2022-10-06T08:57:42.689Z,55.93
2022-10-06T09:00:19.496Z,55.27
2022-10-06T09:02:52.867Z,53.73
2022-10-06T09:05:27.531Z,52.79
2022-10-06T09:08:12.807Z,52.21
2022-10-06T09:10:50.385Z,52.16
2022-10-06T09:13:25.272Z,52.16
2022-10-06T09:15:57.971Z,52.74
2022-10-06T09:18:56.010Z,53.04
2022-10-06T09:21:30.470Z,53.40
2022-10-06T09:24:05.397Z,53.68
2022-10-06T09:26:34.805Z,54.58
2022-10-06T09:29:03.800Z,54.89
2022-10-06T09:31:38.014Z,55.44
2022-10-06T09:34:18.397Z,55.70
2022-10-06T09:37:02.605Z,55.71
2022-10-06T09:39:35.943Z,56.06
2022-10-06T09:42:11.849Z,55.54
2022-10-06T09:44:51.737Z,54.79
2022-10-06T09:47:31.631Z,54.02
2022-10-06T09:50:19.845Z,54.03
2022-10-06T09:53:09.695Z,53.01
2022-10-06T09:55:46.172Z,52.07
2022-10-06T09:58:22.107Z,51.66
2022-10-06T10:00:54.850Z,51.53
2022-10-06T10:03:25.814Z,52.07
2022-10-06T10:05:55.114Z,52.46
2022-10-06T10:08:26.777Z,53.07
2022-10-06T10:11:37.084Z,53.45
2022-10-06T10:14:16.338Z,53.06
2022-10-06T10:16:48.632Z,52.62
2022-10-06T10:19:27.478Z,51.69
2022-10-06T10:21:56.324Z,50.85
2022-10-06T10:24:47.069Z,50.37
2022-10-06T10:27:22.473Z,50.11
2022-10-06T10:30:02.549Z,50.30
2022-10-06T10:32:45.215Z,50.27
2022-10-06T10:35:20.861Z,50.98
2022-10-06T10:37:53.138Z,51.43
2022-10-06T10:40:37.058Z,51.91
2022-10-06T10:43:23.741Z,52.42
2022-10-06T10:45:57.188Z,52.55
2022-10-06T10:48:31.334Z,53.19
2022-10-06T10:51:06.959Z,53.78
2022-10-06T10:53:47.054Z,54.41
2022-10-06T10:56:18.824Z,54.81
2022-10-06T10:58:52.857Z,55.43
2022-10-06T11:01:30.422Z,56.11
2022-10-06T11:04:00.319Z,56.47
2022-10-06T11:06:55.988Z,57.08
2022-10-06T11:09:33.483Z,57.52
2022-10-06T11:12:18.287Z,57.94
2022-10-06T11:14:54.391Z,58.39
2022-10-06T11:17:44.010Z,58.71
2022-10-06T11:20:37.862Z,59.22
2022-10-06T11:23:25.221Z,59.29
2022-10-06T11:26:04.633Z,59.70
2022-10-06T11:28:41.868Z,59.72
2022-10-06T11:31:22.784Z,59.67
2022-10-06T11:33:54.951Z,59.80
2022-10-06T11:36:36.951Z,59.95
2022-10-06T11:39:14.427Z,59.81
2022-10-06T11:41:49.174Z,59.62
2022-10-06T11:44:28.861Z,59.50
2022-10-06T11:47:01.585Z,59.18
2022-10-06T11:50:00.186Z,59.37
2022-10-06T11:52:46.295Z,59.44
2022-10-06T11:55:19.457Z,59.90
2022-10-06T11:58:37.370Z,60.11
2022-10-06T12:01:01.623Z,60.18
2022-10-06T12:04:03.572Z,59.88
2022-10-06T12:07:01.694Z,60.02
2022-10-06T12:09:45.536Z,60.30
2022-10-06T12:13:06.149Z,60.76
2022-10-06T12:19:16.178Z,60.13
2022-10-06T12:21:53.805Z,59.65
2022-10-06T12:24:30.157Z,59.05
2022-10-06T12:27:25.915Z,58.87
2022-10-06T12:30:02.532Z,58.28
2022-10-06T12:32:45.872Z,58.26
2022-10-06T12:35:29.757Z,58.30
2022-10-06T12:38:03.968Z,58.12
2022-10-06T12:40:54.844Z,58.21
2022-10-06T12:43:32.576Z,58.32
2022-10-06T12:46:04.386Z,58.49
2022-10-06T12:48:41.703Z,58.80
2022-10-06T12:51:27.172Z,59.12
2022-10-06T12:54:03.312Z,59.65
2022-10-06T12:56:34.230Z,60.03
2022-10-06T12:59:20.116Z,60.49
2022-10-06T13:01:51.441Z,60.65
2022-10-06T13:04:34.566Z,61.10
2022-10-06T13:07:13.654Z,60.90
2022-10-06T13:09:42.602Z,61.02
2022-10-06T13:12:22.494Z,61.12
2022-10-06T13:15:13.448Z,60.91
2022-10-06T13:17:46.090Z,60.80
2022-10-06T13:20:32.526Z,60.71
2022-10-06T13:23:03.193Z,61.01
2022-10-06T13:25:44.157Z,61.07
2022-10-06T13:28:48.819Z,60.48
2022-10-06T13:31:23.076Z,60.75
2022-10-06T13:33:55.663Z,60.32
2022-10-06T13:36:25.888Z,59.37
2022-10-06T13:38:54.929Z,58.68
2022-10-06T13:41:28.433Z,58.44
2022-10-06T13:44:00.047Z,57.70
2022-10-06T13:46:31.873Z,57.12
2022-10-06T13:49:02.891Z,56.40
2022-10-06T13:51:33.255Z,55.57
2022-10-06T13:54:17.686Z,55.22
2022-10-06T13:56:46.450Z,53.64
2022-10-06T13:59:27.048Z,52.80
2022-10-06T14:01:56.415Z,52.08
2022-10-06T14:04:28.668Z,51.28
2022-10-06T14:07:01.082Z,51.28
2022-10-06T14:09:32.870Z,51.43
2022-10-06T14:12:10.895Z,51.43
2022-10-06T14:14:45.327Z,51.05
2022-10-06T14:17:22.234Z,51.05
2022-10-06T14:19:51.832Z,50.95
2022-10-06T14:22:33.720Z,50.96
2022-10-06T14:25:10.335Z,50.91
2022-10-06T14:27:39.099Z,50.55
2022-10-06T14:30:11.094Z,50.53
2022-10-06T14:32:39.773Z,50.71
2022-10-06T14:35:11.918Z,50.56
2022-10-06T14:37:40.734Z,50.66
2022-10-06T14:40:12.253Z,50.56
2022-10-06T14:42:41.216Z,50.63
2022-10-06T14:45:13.157Z,50.51
2022-10-06T14:47:42.188Z,50.96
2022-10-06T14:50:11.060Z,51.09
2022-10-06T14:52:40.126Z,51.31
2022-10-06T14:55:10.369Z,51.44
2022-10-06T14:57:39.164Z,51.64
2022-10-06T15:00:11.063Z,51.64
2022-10-06T15:02:39.908Z,51.97
2022-10-06T15:05:09.587Z,52.01
2022-10-06T15:07:56.241Z,51.92
2022-10-06T15:10:25.092Z,51.31
2022-10-06T15:12:55.009Z,51.42
2022-10-06T15:15:24.127Z,51.27
2022-10-06T15:17:53.232Z,51.11
2022-10-06T15:20:21.890Z,50.94
2022-10-06T15:22:50.646Z,50.96
2022-10-06T15:25:34.006Z,51.05
2022-10-06T15:28:23.551Z,51.39
2022-10-06T15:30:52.692Z,51.41
2022-10-06T15:33:22.499Z,51.75
2022-10-06T15:36:13.871Z,51.59
2022-10-06T15:38:42.846Z,51.98
2022-10-06T15:41:12.219Z,52.13
2022-10-06T15:43:56.979Z,52.21
2022-10-06T15:46:28.556Z,52.63
2022-10-06T15:49:01.567Z,52.81
2022-10-06T15:51:34.239Z,53.03
2022-10-06T15:54:03.389Z,53.29
2022-10-06T15:56:32.121Z,53.42
2022-10-06T15:59:01.354Z,53.70
2022-10-06T16:01:39.908Z,53.96
2022-10-06T16:04:19.987Z,54.16
2022-10-06T16:06:49.838Z,54.43
2022-10-06T16:09:19.882Z,54.58
2022-10-06T16:11:48.997Z,54.87
2022-10-06T16:14:17.796Z,54.99
2022-10-06T16:16:47.576Z,55.06
2022-10-06T16:19:18.381Z,55.18
2022-10-06T16:21:48.751Z,55.22
2022-10-06T16:24:18.428Z,55.42
2022-10-06T16:26:48.151Z,55.44
2022-10-06T16:29:18.899Z,55.50
2022-10-06T16:31:50.350Z,55.64
2022-10-06T16:34:20.496Z,55.79
2022-10-06T16:36:49.172Z,55.90
2022-10-06T16:39:19.485Z,56.01
2022-10-06T16:41:49.380Z,56.13
2022-10-06T16:44:18.196Z,56.13
2022-10-06T16:46:46.900Z,56.17
2022-10-06T16:49:15.926Z,56.53
2022-10-06T16:51:45.747Z,56.56
2022-10-06T16:54:16.551Z,56.66
2022-10-06T16:56:46.905Z,56.79
2022-10-06T16:59:17.106Z,56.85
2022-10-06T17:01:46.988Z,56.97
2022-10-06T17:04:17.866Z,57.04
2022-10-06T17:06:49.463Z,57.19
2022-10-06T17:09:20.417Z,57.27
2022-10-06T17:11:50.410Z,57.33
2022-10-06T17:14:20.832Z,57.37
2022-10-06T17:16:51.779Z,57.44
2022-10-06T17:19:23.038Z,57.71
2022-10-06T17:21:58.250Z,57.83
2022-10-06T17:24:28.654Z,57.98
2022-10-06T17:26:58.572Z,57.99
2022-10-06T17:29:27.557Z,58.06
2022-10-06T17:31:59.400Z,58.19
2022-10-06T17:34:33.454Z,58.36
2022-10-06T17:37:02.952Z,58.30
2022-10-06T17:39:31.782Z,58.51
2022-10-06T17:42:01.198Z,58.50
2022-10-06T17:44:30.606Z,58.64
2022-10-06T17:47:00.264Z,58.61
2022-10-06T17:49:32.196Z,58.71
2022-10-06T17:52:01.365Z,58.71
2022-10-06T17:54:31.176Z,58.79
2022-10-06T17:56:59.821Z,58.77
2022-10-06T17:59:31.159Z,58.66
2022-10-06T18:02:02.383Z,58.68
2022-10-06T18:04:33.673Z,58.76
2022-10-06T18:07:03.339Z,58.81
2022-10-06T18:09:32.111Z,58.95
2022-10-06T18:12:02.042Z,58.95
2022-10-06T18:14:33.081Z,59.15
2022-10-06T18:17:03.274Z,59.17
2022-10-06T18:19:34.066Z,59.36
2022-10-06T18:22:09.261Z,59.33
2022-10-06T18:24:39.305Z,59.27
2022-10-06T18:27:08.966Z,59.32
2022-10-06T18:29:38.854Z,59.32
2022-10-06T18:37:47.003Z,59.65
2022-10-06T18:40:16.037Z,59.63
2022-10-06T18:42:45.639Z,59.70
2022-10-06T18:45:38.434Z,59.72
2022-10-06T18:48:27.757Z,59.94
2022-10-06T18:51:02.902Z,60.03
2022-10-06T18:53:36.644Z,59.96
2022-10-06T18:56:06.659Z,59.96
2022-10-06T18:58:39.517Z,60.04
2022-10-06T19:01:08.904Z,60.15
2022-10-06T19:03:37.931Z,60.20
2022-10-06T19:06:07.277Z,60.35
2022-10-06T19:08:36.080Z,60.52
2022-10-06T19:11:24.628Z,60.39
2022-10-06T19:13:55.189Z,60.61
2022-10-06T19:16:24.764Z,60.76
2022-10-06T19:18:54.310Z,60.70
2022-10-06T19:21:23.012Z,60.76
2022-10-06T19:23:51.687Z,60.87
2022-10-06T19:26:22.038Z,61.08
2022-10-06T19:28:53.279Z,61.22
2022-10-06T19:31:21.965Z,61.45
2022-10-06T19:33:50.674Z,61.53
2022-10-06T19:36:19.584Z,61.57
2022-10-06T19:38:48.301Z,61.72
2022-10-06T19:41:34.961Z,61.68
2022-10-06T19:44:03.706Z,61.90
2022-10-06T19:46:32.375Z,61.92
2022-10-06T19:49:05.062Z,61.99
2022-10-06T19:51:35.170Z,62.11
2022-10-06T19:54:04.679Z,62.12
2022-10-06T19:56:33.567Z,62.23
2022-10-06T19:59:03.283Z,62.33
2022-10-06T20:01:32.367Z,62.59
2022-10-06T20:04:03.180Z,62.70
2022-10-06T20:06:34.531Z,62.81
2022-10-06T20:09:07.044Z,62.98
2022-10-06T20:11:36.946Z,63.13
2022-10-06T20:14:09.879Z,63.32
2022-10-06T20:16:41.174Z,63.50
2022-10-06T20:19:12.307Z,63.50
2022-10-06T20:21:41.329Z,63.78
2022-10-06T20:24:14.183Z,63.92
2022-10-06T20:26:44.233Z,64.00
2022-10-06T20:29:14.396Z,64.15
2022-10-06T20:31:44.762Z,64.36
2022-10-06T20:34:15.309Z,64.47
2022-10-06T20:36:44.124Z,64.54
2022-10-06T20:39:33.672Z,64.82
2022-10-06T20:42:02.551Z,65.01
2022-10-06T20:44:31.222Z,65.10
2022-10-06T20:46:59.975Z,65.27
2022-10-06T20:49:29.145Z,65.26
2022-10-06T20:51:58.572Z,65.63
2022-10-06T20:54:30.304Z,65.73
2022-10-06T20:56:58.964Z,65.94
2022-10-06T20:59:29.213Z,66.04
2022-10-06T21:01:59.514Z,66.23
2022-10-06T21:04:28.679Z,66.20
2022-10-06T21:06:57.713Z,66.42
2022-10-06T21:09:27.915Z,66.48
2022-10-06T21:11:57.161Z,66.47
2022-10-06T21:14:25.960Z,66.68
2022-10-06T21:16:54.693Z,66.82
2022-10-06T21:19:24.583Z,66.88
2022-10-06T21:21:55.351Z,67.06
2022-10-06T21:24:24.129Z,67.15
2022-10-06T21:26:53.029Z,67.33
2022-10-06T21:29:22.187Z,67.45
2022-10-06T21:31:51.063Z,67.65
2022-10-06T21:34:19.757Z,67.77
2022-10-06T21:36:48.546Z,67.77
2022-10-06T21:39:17.479Z,67.91
2022-10-06T21:41:46.235Z,68.00
2022-10-06T21:44:16.654Z,68.13
2022-10-06T21:46:49.038Z,68.21
2022-10-06T21:49:19.524Z,68.14
2022-10-06T21:51:51.281Z,68.35
2022-10-06T21:54:20.910Z,68.41
2022-10-06T21:56:50.547Z,68.52
2022-10-06T21:59:19.333Z,68.63
2022-10-06T22:01:49.539Z,68.77
2022-10-06T22:04:19.134Z,68.86
2022-10-06T22:06:49.508Z,68.89
2022-10-06T22:09:19.910Z,69.11
2022-10-06T22:11:49.132Z,69.03
2022-10-06T22:14:19.381Z,69.24
2022-10-06T22:16:48.224Z,69.35
2022-10-06T22:19:18.307Z,69.35
2022-10-06T22:21:48.142Z,69.55
2022-10-06T22:24:18.768Z,69.61
2022-10-06T22:26:48.166Z,69.67
2022-10-06T22:29:19.124Z,69.78
2022-10-06T22:31:48.767Z,69.83
2022-10-06T22:34:19.759Z,69.96
2022-10-06T22:36:48.755Z,69.92
2022-10-06T22:39:18.179Z,70.12
2022-10-06T22:41:47.041Z,70.19
2022-10-06T22:44:16.022Z,70.25
2022-10-06T22:46:44.891Z,70.26
2022-10-06T22:49:13.780Z,70.41
2022-10-06T22:51:42.590Z,70.55
2022-10-06T22:54:18.497Z,70.56
2022-10-06T22:56:47.249Z,70.68
2022-10-06T22:59:16.069Z,70.81
2022-10-06T23:01:44.805Z,70.92
2022-10-06T23:04:13.888Z,71.08
2022-10-06T23:06:42.664Z,71.11
2022-10-06T23:09:12.803Z,71.08
2022-10-06T23:11:41.593Z,71.15
2022-10-06T23:14:10.385Z,71.20
2022-10-06T23:16:39.225Z,71.23
2022-10-06T23:19:08.008Z,71.18
2022-10-06T23:21:39.376Z,71.13
2022-10-06T23:24:08.486Z,71.21
2022-10-06T23:26:37.223Z,71.28
2022-10-06T23:29:06.910Z,71.39
2022-10-06T23:31:35.757Z,71.45
2022-10-06T23:34:04.527Z,71.54
2022-10-06T23:36:33.494Z,71.37
2022-10-06T23:39:02.321Z,71.53
2022-10-06T23:41:31.169Z,71.67
2022-10-06T23:44:00.265Z,71.78
2022-10-06T23:46:29.007Z,71.77
2022-10-06T23:48:57.936Z,71.84
2022-10-06T23:51:26.695Z,71.83
2022-10-06T23:53:55.430Z,71.89
2022-10-06T23:56:24.900Z,72.02
2022-10-06T23:58:53.726Z,72.03
